sensor_id;sensor_type;location;lat;lon;timestamp;P1;durP1;ratioP1;P2;durP2;ratioP2
11835;SDS011;5977;51.972;7.640;2023-04-24T00:00:46;152.07;;;48.90;;
11835;SDS011;5977;51.972;7.640;2023-04-24T00:03:16;152.43;;;48.87;;
11835;SDS011;5977;51.972;7.640;2023-04-24T00:05:47;152.40;;;48.83;;
11835;SDS011;5977;51.972;7.640;2023-04-24T00:08:15;152.87;;;49.20;;
11835;SDS011;5977;51.972;7.640;2023-04-24T00:10:43;152.37;;;48.87;;
11835;SDS011;5977;51.972;7.640;2023-04-24T00:13:11;152.73;;;49.07;;
11835;SDS011;5977;51.972;7.640;2023-04-24T00:15:38;152.17;;;48.77;;
11835;SDS011;5977;51.972;7.640;2023-04-24T00:18:06;152.97;;;49.17;;
11835;SDS011;5977;51.972;7.640;2023-04-24T00:20:35;152.40;;;48.87;;
11835;SDS011;5977;51.972;7.640;2023-04-24T00:23:03;152.17;;;48.77;;
11835;SDS011;5977;51.972;7.640;2023-04-24T00:25:31;152.10;;;48.67;;
11835;SDS011;5977;51.972;7.640;2023-04-24T00:27:59;152.03;;;48.83;;
11835;SDS011;5977;51.972;7.640;2023-04-24T00:30:27;152.00;;;48.67;;
11835;SDS011;5977;51.972;7.640;2023-04-24T00:32:55;152.37;;;49.03;;
11835;SDS011;5977;51.972;7.640;2023-04-24T00:35:24;152.40;;;48.77;;
11835;SDS011;5977;51.972;7.640;2023-04-24T00:37:53;152.50;;;49.03;;
11835;SDS011;5977;51.972;7.640;2023-04-24T00:40:21;152.30;;;48.80;;
11835;SDS011;5977;51.972;7.640;2023-04-24T00:42:49;152.37;;;48.77;;
11835;SDS011;5977;51.972;7.640;2023-04-24T00:45:17;151.70;;;48.80;;
11835;SDS011;5977;51.972;7.640;2023-04-24T00:47:45;152.63;;;49.00;;
11835;SDS011;5977;51.972;7.640;2023-04-24T00:50:15;151.97;;;48.63;;
11835;SDS011;5977;51.972;7.640;2023-04-24T00:52:43;152.00;;;48.80;;
11835;SDS011;5977;51.972;7.640;2023-04-24T00:55:12;152.13;;;48.87;;
11835;SDS011;5977;51.972;7.640;2023-04-24T00:57:41;151.37;;;48.50;;
11835;SDS011;5977;51.972;7.640;2023-04-24T01:00:09;151.93;;;48.77;;
11835;SDS011;5977;51.972;7.640;2023-04-24T01:02:38;152.27;;;48.93;;
11835;SDS011;5977;51.972;7.640;2023-04-24T01:05:10;152.10;;;48.83;;
11835;SDS011;5977;51.972;7.640;2023-04-24T01:07:39;151.93;;;48.80;;
11835;SDS011;5977;51.972;7.640;2023-04-24T01:10:13;151.37;;;48.37;;
11835;SDS011;5977;51.972;7.640;2023-04-24T01:12:41;151.77;;;48.57;;
11835;SDS011;5977;51.972;7.640;2023-04-24T01:15:11;151.60;;;48.37;;
11835;SDS011;5977;51.972;7.640;2023-04-24T01:17:41;151.73;;;48.50;;
11835;SDS011;5977;51.972;7.640;2023-04-24T01:20:09;151.80;;;48.60;;
11835;SDS011;5977;51.972;7.640;2023-04-24T01:22:39;152.90;;;49.13;;
11835;SDS011;5977;51.972;7.640;2023-04-24T01:25:07;151.73;;;48.70;;
11835;SDS011;5977;51.972;7.640;2023-04-24T01:27:35;151.67;;;48.57;;
11835;SDS011;5977;51.972;7.640;2023-04-24T01:30:04;151.53;;;48.50;;
11835;SDS011;5977;51.972;7.640;2023-04-24T01:32:33;152.13;;;48.87;;
11835;SDS011;5977;51.972;7.640;2023-04-24T01:35:01;151.67;;;48.63;;
11835;SDS011;5977;51.972;7.640;2023-04-24T01:37:30;151.67;;;48.67;;
11835;SDS011;5977;51.972;7.640;2023-04-24T01:39:59;151.93;;;48.73;;
11835;SDS011;5977;51.972;7.640;2023-04-24T01:42:28;151.53;;;48.53;;
11835;SDS011;5977;51.972;7.640;2023-04-24T01:44:57;150.97;;;48.23;;
11835;SDS011;5977;51.972;7.640;2023-04-24T01:47:25;151.70;;;48.20;;
11835;SDS011;5977;51.972;7.640;2023-04-24T01:49:53;151.20;;;48.30;;
11835;SDS011;5977;51.972;7.640;2023-04-24T01:52:21;151.23;;;48.57;;
11835;SDS011;5977;51.972;7.640;2023-04-24T01:54:49;151.60;;;48.53;;
11835;SDS011;5977;51.972;7.640;2023-04-24T01:57:18;152.40;;;48.93;;
11835;SDS011;5977;51.972;7.640;2023-04-24T01:59:46;151.63;;;48.57;;
11835;SDS011;5977;51.972;7.640;2023-04-24T02:02:14;151.97;;;48.87;;
11835;SDS011;5977;51.972;7.640;2023-04-24T02:04:42;151.43;;;48.63;;
11835;SDS011;5977;51.972;7.640;2023-04-24T02:07:10;152.07;;;49.07;;
11835;SDS011;5977;51.972;7.640;2023-04-24T02:09:38;151.67;;;48.50;;
11835;SDS011;5977;51.972;7.640;2023-04-24T02:12:06;152.00;;;48.73;;
11835;SDS011;5977;51.972;7.640;2023-04-24T02:14:36;151.53;;;48.60;;
11835;SDS011;5977;51.972;7.640;2023-04-24T02:17:04;152.23;;;48.80;;
11835;SDS011;5977;51.972;7.640;2023-04-24T02:19:35;152.10;;;48.87;;
11835;SDS011;5977;51.972;7.640;2023-04-24T02:22:03;152.23;;;48.77;;
11835;SDS011;5977;51.972;7.640;2023-04-24T02:24:33;151.77;;;48.47;;
11835;SDS011;5977;51.972;7.640;2023-04-24T02:27:01;151.47;;;48.33;;
11835;SDS011;5977;51.972;7.640;2023-04-24T02:29:29;151.90;;;48.67;;
11835;SDS011;5977;51.972;7.640;2023-04-24T02:31:58;151.40;;;48.43;;
11835;SDS011;5977;51.972;7.640;2023-04-24T02:34:26;151.67;;;48.70;;
11835;SDS011;5977;51.972;7.640;2023-04-24T02:36:54;151.00;;;48.13;;
11835;SDS011;5977;51.972;7.640;2023-04-24T02:39:22;151.90;;;48.87;;
11835;SDS011;5977;51.972;7.640;2023-04-24T02:41:51;151.60;;;48.57;;
11835;SDS011;5977;51.972;7.640;2023-04-24T02:44:19;151.83;;;48.90;;
11835;SDS011;5977;51.972;7.640;2023-04-24T02:46:48;151.33;;;48.60;;
11835;SDS011;5977;51.972;7.640;2023-04-24T02:49:17;151.27;;;48.60;;
11835;SDS011;5977;51.972;7.640;2023-04-24T02:51:45;151.57;;;48.67;;
11835;SDS011;5977;51.972;7.640;2023-04-24T02:54:13;151.43;;;48.60;;
11835;SDS011;5977;51.972;7.640;2023-04-24T02:56:41;151.63;;;48.70;;
11835;SDS011;5977;51.972;7.640;2023-04-24T02:59:09;151.30;;;48.53;;
11835;SDS011;5977;51.972;7.640;2023-04-24T03:01:37;150.90;;;48.40;;
11835;SDS011;5977;51.972;7.640;2023-04-24T03:04:05;151.43;;;48.57;;
11835;SDS011;5977;51.972;7.640;2023-04-24T03:06:35;151.27;;;48.27;;
11835;SDS011;5977;51.972;7.640;2023-04-24T03:09:03;151.47;;;48.37;;
11835;SDS011;5977;51.972;7.640;2023-04-24T03:11:31;151.00;;;48.22;;
11835;SDS011;5977;51.972;7.640;2023-04-24T03:13:59;151.27;;;48.63;;
11835;SDS011;5977;51.972;7.640;2023-04-24T03:16:27;151.57;;;48.60;;
11835;SDS011;5977;51.972;7.640;2023-04-24T03:18:55;151.93;;;48.83;;
11835;SDS011;5977;51.972;7.640;2023-04-24T03:21:25;150.87;;;48.17;;
11835;SDS011;5977;51.972;7.640;2023-04-24T03:23:55;151.47;;;48.70;;
11835;SDS011;5977;51.972;7.640;2023-04-24T03:26:23;150.87;;;48.23;;
11835;SDS011;5977;51.972;7.640;2023-04-24T03:29:10;151.37;;;48.47;;
11835;SDS011;5977;51.972;7.640;2023-04-24T03:31:38;151.77;;;48.80;;
11835;SDS011;5977;51.972;7.640;2023-04-24T03:34:06;151.67;;;48.70;;
11835;SDS011;5977;51.972;7.640;2023-04-24T03:36:34;151.50;;;48.80;;
11835;SDS011;5977;51.972;7.640;2023-04-24T03:39:06;151.10;;;48.20;;
11835;SDS011;5977;51.972;7.640;2023-04-24T03:41:36;150.67;;;48.27;;
11835;SDS011;5977;51.972;7.640;2023-04-24T03:44:10;152.07;;;48.93;;
11835;SDS011;5977;51.972;7.640;2023-04-24T03:46:39;151.33;;;48.73;;
11835;SDS011;5977;51.972;7.640;2023-04-24T03:49:08;151.30;;;48.53;;
11835;SDS011;5977;51.972;7.640;2023-04-24T03:51:40;151.43;;;48.53;;
11835;SDS011;5977;51.972;7.640;2023-04-24T03:54:20;151.73;;;48.63;;
11835;SDS011;5977;51.972;7.640;2023-04-24T03:56:49;151.30;;;48.47;;
11835;SDS011;5977;51.972;7.640;2023-04-24T03:59:17;151.70;;;48.73;;
11835;SDS011;5977;51.972;7.640;2023-04-24T04:01:53;152.13;;;48.97;;
11835;SDS011;5977;51.972;7.640;2023-04-24T04:04:21;151.67;;;48.57;;
11835;SDS011;5977;51.972;7.640;2023-04-24T04:06:49;150.83;;;48.57;;
11835;SDS011;5977;51.972;7.640;2023-04-24T04:09:19;151.83;;;48.80;;
11835;SDS011;5977;51.972;7.640;2023-04-24T04:11:47;151.60;;;48.53;;
11835;SDS011;5977;51.972;7.640;2023-04-24T04:14:15;150.83;;;48.30;;
11835;SDS011;5977;51.972;7.640;2023-04-24T04:16:46;151.30;;;48.60;;
11835;SDS011;5977;51.972;7.640;2023-04-24T04:19:14;151.50;;;48.63;;
11835;SDS011;5977;51.972;7.640;2023-04-24T04:21:42;151.20;;;48.53;;
11835;SDS011;5977;51.972;7.640;2023-04-24T04:24:23;151.13;;;48.43;;
11835;SDS011;5977;51.972;7.640;2023-04-24T04:26:52;151.57;;;48.77;;
11835;SDS011;5977;51.972;7.640;2023-04-24T04:29:27;150.87;;;48.47;;
11835;SDS011;5977;51.972;7.640;2023-04-24T04:31:55;151.63;;;48.83;;
11835;SDS011;5977;51.972;7.640;2023-04-24T04:34:23;151.63;;;48.63;;
11835;SDS011;5977;51.972;7.640;2023-04-24T04:36:51;151.80;;;48.77;;
11835;SDS011;5977;51.972;7.640;2023-04-24T04:39:36;151.57;;;48.60;;
11835;SDS011;5977;51.972;7.640;2023-04-24T04:42:07;151.67;;;48.77;;
11835;SDS011;5977;51.972;7.640;2023-04-24T04:44:39;150.70;;;48.03;;
11835;SDS011;5977;51.972;7.640;2023-04-24T04:47:10;151.37;;;48.57;;
11835;SDS011;5977;51.972;7.640;2023-04-24T04:49:40;151.43;;;48.53;;
11835;SDS011;5977;51.972;7.640;2023-04-24T04:52:17;151.73;;;48.70;;
11835;SDS011;5977;51.972;7.640;2023-04-24T04:54:49;151.23;;;48.40;;
11835;SDS011;5977;51.972;7.640;2023-04-24T04:57:17;151.97;;;48.77;;
11835;SDS011;5977;51.972;7.640;2023-04-24T04:59:46;151.67;;;48.70;;
11835;SDS011;5977;51.972;7.640;2023-04-24T05:02:24;152.77;;;49.07;;
11835;SDS011;5977;51.972;7.640;2023-04-24T05:04:52;152.50;;;49.00;;
11835;SDS011;5977;51.972;7.640;2023-04-24T05:07:21;151.97;;;48.97;;
11835;SDS011;5977;51.972;7.640;2023-04-24T05:09:52;151.07;;;48.33;;
11835;SDS011;5977;51.972;7.640;2023-04-24T05:12:20;151.17;;;48.40;;
11835;SDS011;5977;51.972;7.640;2023-04-24T05:14:51;151.23;;;48.57;;
11835;SDS011;5977;51.972;7.640;2023-04-24T05:17:19;151.80;;;48.73;;
11835;SDS011;5977;51.972;7.640;2023-04-24T05:19:47;152.03;;;48.70;;
11835;SDS011;5977;51.972;7.640;2023-04-24T05:22:15;151.17;;;48.40;;
11835;SDS011;5977;51.972;7.640;2023-04-24T05:24:49;151.43;;;48.47;;
11835;SDS011;5977;51.972;7.640;2023-04-24T05:27:31;151.30;;;48.50;;
11835;SDS011;5977;51.972;7.640;2023-04-24T05:30:01;151.03;;;48.37;;
11835;SDS011;5977;51.972;7.640;2023-04-24T05:32:29;151.30;;;48.33;;
11835;SDS011;5977;51.972;7.640;2023-04-24T05:34:56;150.87;;;48.33;;
11835;SDS011;5977;51.972;7.640;2023-04-24T05:37:25;150.87;;;48.40;;
11835;SDS011;5977;51.972;7.640;2023-04-24T05:39:53;151.53;;;48.67;;
11835;SDS011;5977;51.972;7.640;2023-04-24T05:42:20;151.90;;;48.63;;
11835;SDS011;5977;51.972;7.640;2023-04-24T05:44:50;150.80;;;48.27;;
11835;SDS011;5977;51.972;7.640;2023-04-24T05:47:23;151.37;;;48.57;;
11835;SDS011;5977;51.972;7.640;2023-04-24T05:49:53;151.27;;;48.50;;
11835;SDS011;5977;51.972;7.640;2023-04-24T05:52:21;151.47;;;48.70;;
11835;SDS011;5977;51.972;7.640;2023-04-24T05:54:49;151.77;;;48.80;;
11835;SDS011;5977;51.972;7.640;2023-04-24T05:57:21;151.27;;;48.47;;
11835;SDS011;5977;51.972;7.640;2023-04-24T05:59:57;151.00;;;48.27;;
11835;SDS011;5977;51.972;7.640;2023-04-24T06:02:25;151.63;;;48.67;;
11835;SDS011;5977;51.972;7.640;2023-04-24T06:04:53;150.83;;;48.43;;
11835;SDS011;5977;51.972;7.640;2023-04-24T06:07:23;150.23;;;47.97;;
11835;SDS011;5977;51.972;7.640;2023-04-24T06:09:52;151.43;;;48.47;;
11835;SDS011;5977;51.972;7.640;2023-04-24T06:12:21;149.13;;;47.47;;
11835;SDS011;5977;51.972;7.640;2023-04-24T06:15:05;150.20;;;48.03;;
11835;SDS011;5977;51.972;7.640;2023-04-24T06:18:03;150.47;;;48.00;;
11835;SDS011;5977;51.972;7.640;2023-04-24T06:20:32;150.00;;;47.77;;
11835;SDS011;5977;51.972;7.640;2023-04-24T06:23:00;149.87;;;47.73;;
11835;SDS011;5977;51.972;7.640;2023-04-24T06:25:28;149.33;;;47.43;;
11835;SDS011;5977;51.972;7.640;2023-04-24T06:27:56;149.30;;;47.43;;
11835;SDS011;5977;51.972;7.640;2023-04-24T06:30:26;149.47;;;47.57;;
11835;SDS011;5977;51.972;7.640;2023-04-24T06:32:54;149.47;;;47.50;;
11835;SDS011;5977;51.972;7.640;2023-04-24T06:35:35;148.80;;;47.37;;
11835;SDS011;5977;51.972;7.640;2023-04-24T06:38:04;149.13;;;47.37;;
11835;SDS011;5977;51.972;7.640;2023-04-24T06:40:32;149.23;;;47.30;;
11835;SDS011;5977;51.972;7.640;2023-04-24T06:43:00;149.50;;;47.57;;
11835;SDS011;5977;51.972;7.640;2023-04-24T06:45:30;148.47;;;47.23;;
11835;SDS011;5977;51.972;7.640;2023-04-24T06:47:58;148.97;;;47.30;;
11835;SDS011;5977;51.972;7.640;2023-04-24T06:50:26;148.83;;;47.33;;
11835;SDS011;5977;51.972;7.640;2023-04-24T06:52:53;148.73;;;47.43;;
11835;SDS011;5977;51.972;7.640;2023-04-24T06:55:21;149.40;;;47.60;;
11835;SDS011;5977;51.972;7.640;2023-04-24T06:57:49;148.90;;;47.57;;
11835;SDS011;5977;51.972;7.640;2023-04-24T07:00:17;149.03;;;47.60;;
11835;SDS011;5977;51.972;7.640;2023-04-24T07:02:46;148.90;;;47.37;;
11835;SDS011;5977;51.972;7.640;2023-04-24T07:05:14;148.50;;;47.27;;
11835;SDS011;5977;51.972;7.640;2023-04-24T07:07:46;148.53;;;47.30;;
11835;SDS011;5977;51.972;7.640;2023-04-24T07:10:15;149.60;;;47.73;;
11835;SDS011;5977;51.972;7.640;2023-04-24T07:12:43;149.00;;;47.60;;
11835;SDS011;5977;51.972;7.640;2023-04-24T07:15:11;149.23;;;47.57;;
11835;SDS011;5977;51.972;7.640;2023-04-24T07:17:38;148.63;;;47.50;;
11835;SDS011;5977;51.972;7.640;2023-04-24T07:20:11;148.67;;;47.43;;
11835;SDS011;5977;51.972;7.640;2023-04-24T07:22:42;148.93;;;47.63;;
11835;SDS011;5977;51.972;7.640;2023-04-24T07:25:10;148.40;;;47.13;;
11835;SDS011;5977;51.972;7.640;2023-04-24T07:27:38;149.23;;;47.57;;
11835;SDS011;5977;51.972;7.640;2023-04-24T07:30:06;148.33;;;47.33;;
11835;SDS011;5977;51.972;7.640;2023-04-24T07:32:34;148.97;;;47.60;;
11835;SDS011;5977;51.972;7.640;2023-04-24T07:35:02;148.77;;;47.50;;
11835;SDS011;5977;51.972;7.640;2023-04-24T07:37:32;148.90;;;47.60;;
11835;SDS011;5977;51.972;7.640;2023-04-24T07:40:00;148.70;;;47.50;;
11835;SDS011;5977;51.972;7.640;2023-04-24T07:42:28;148.33;;;47.30;;
11835;SDS011;5977;51.972;7.640;2023-04-24T07:44:57;148.73;;;47.53;;
11835;SDS011;5977;51.972;7.640;2023-04-24T07:47:25;147.90;;;47.23;;
11835;SDS011;5977;51.972;7.640;2023-04-24T07:49:53;148.33;;;47.43;;
11835;SDS011;5977;51.972;7.640;2023-04-24T07:52:21;148.17;;;47.40;;
11835;SDS011;5977;51.972;7.640;2023-04-24T07:54:50;147.63;;;47.13;;
11835;SDS011;5977;51.972;7.640;2023-04-24T07:57:24;147.77;;;47.03;;
11835;SDS011;5977;51.972;7.640;2023-04-24T07:59:59;148.47;;;47.47;;
11835;SDS011;5977;51.972;7.640;2023-04-24T08:02:36;148.10;;;47.23;;
11835;SDS011;5977;51.972;7.640;2023-04-24T08:05:05;147.80;;;47.13;;
11835;SDS011;5977;51.972;7.640;2023-04-24T08:07:33;147.80;;;47.20;;
11835;SDS011;5977;51.972;7.640;2023-04-24T08:10:04;148.57;;;47.50;;
11835;SDS011;5977;51.972;7.640;2023-04-24T08:12:32;147.53;;;46.90;;
11835;SDS011;5977;51.972;7.640;2023-04-24T08:15:00;147.80;;;47.17;;
11835;SDS011;5977;51.972;7.640;2023-04-24T08:17:28;147.50;;;47.07;;
11835;SDS011;5977;51.972;7.640;2023-04-24T08:19:59;148.17;;;47.23;;
11835;SDS011;5977;51.972;7.640;2023-04-24T08:22:28;148.33;;;47.50;;
11835;SDS011;5977;51.972;7.640;2023-04-24T08:24:56;147.90;;;47.33;;
11835;SDS011;5977;51.972;7.640;2023-04-24T08:27:29;147.93;;;47.30;;
11835;SDS011;5977;51.972;7.640;2023-04-24T08:29:57;147.93;;;47.17;;
11835;SDS011;5977;51.972;7.640;2023-04-24T08:32:25;147.73;;;47.17;;
11835;SDS011;5977;51.972;7.640;2023-04-24T08:34:54;148.03;;;47.30;;
11835;SDS011;5977;51.972;7.640;2023-04-24T08:37:22;147.77;;;47.27;;
11835;SDS011;5977;51.972;7.640;2023-04-24T08:39:50;147.43;;;47.17;;
11835;SDS011;5977;51.972;7.640;2023-04-24T08:42:18;148.17;;;47.47;;
11835;SDS011;5977;51.972;7.640;2023-04-24T08:44:49;147.23;;;47.00;;
11835;SDS011;5977;51.972;7.640;2023-04-24T08:47:17;147.70;;;47.23;;
11835;SDS011;5977;51.972;7.640;2023-04-24T08:49:47;148.30;;;47.50;;
11835;SDS011;5977;51.972;7.640;2023-04-24T08:52:16;147.77;;;47.17;;
11835;SDS011;5977;51.972;7.640;2023-04-24T08:54:46;147.23;;;47.10;;
11835;SDS011;5977;51.972;7.640;2023-04-24T08:57:14;147.77;;;47.20;;
11835;SDS011;5977;51.972;7.640;2023-04-24T08:59:43;147.57;;;47.17;;
11835;SDS011;5977;51.972;7.640;2023-04-24T09:02:14;147.23;;;47.13;;
11835;SDS011;5977;51.972;7.640;2023-04-24T09:04:43;147.33;;;47.10;;
11835;SDS011;5977;51.972;7.640;2023-04-24T09:07:13;147.20;;;46.97;;
11835;SDS011;5977;51.972;7.640;2023-04-24T09:09:43;146.83;;;46.77;;
11835;SDS011;5977;51.972;7.640;2023-04-24T09:12:11;147.60;;;47.07;;
11835;SDS011;5977;51.972;7.640;2023-04-24T09:14:39;147.57;;;47.17;;
11835;SDS011;5977;51.972;7.640;2023-04-24T09:17:11;147.37;;;47.07;;
11835;SDS011;5977;51.972;7.640;2023-04-24T09:19:40;147.17;;;47.10;;
11835;SDS011;5977;51.972;7.640;2023-04-24T09:22:09;147.67;;;47.10;;
11835;SDS011;5977;51.972;7.640;2023-04-24T09:24:37;147.27;;;47.07;;
11835;SDS011;5977;51.972;7.640;2023-04-24T09:27:06;147.10;;;47.03;;
11835;SDS011;5977;51.972;7.640;2023-04-24T09:29:36;147.57;;;47.13;;
11835;SDS011;5977;51.972;7.640;2023-04-24T09:32:17;147.13;;;47.10;;
11835;SDS011;5977;51.972;7.640;2023-04-24T09:34:48;146.73;;;46.90;;
11835;SDS011;5977;51.972;7.640;2023-04-24T09:37:27;146.80;;;46.87;;
11835;SDS011;5977;51.972;7.640;2023-04-24T09:40:08;147.23;;;47.07;;
11835;SDS011;5977;51.972;7.640;2023-04-24T09:42:38;146.50;;;46.77;;
11835;SDS011;5977;51.972;7.640;2023-04-24T09:45:09;147.23;;;47.10;;
11835;SDS011;5977;51.972;7.640;2023-04-24T09:47:41;147.40;;;47.20;;
11835;SDS011;5977;51.972;7.640;2023-04-24T09:50:12;147.57;;;47.33;;
11835;SDS011;5977;51.972;7.640;2023-04-24T09:52:43;147.23;;;47.13;;
11835;SDS011;5977;51.972;7.640;2023-04-24T09:55:16;146.73;;;46.87;;
11835;SDS011;5977;51.972;7.640;2023-04-24T09:57:49;146.83;;;47.03;;
11835;SDS011;5977;51.972;7.640;2023-04-24T10:00:18;146.47;;;46.73;;
11835;SDS011;5977;51.972;7.640;2023-04-24T10:02:50;146.37;;;46.77;;
11835;SDS011;5977;51.972;7.640;2023-04-24T10:05:26;147.03;;;47.17;;
11835;SDS011;5977;51.972;7.640;2023-04-24T10:07:57;147.17;;;47.13;;
11835;SDS011;5977;51.972;7.640;2023-04-24T10:10:29;146.77;;;47.10;;
11835;SDS011;5977;51.972;7.640;2023-04-24T10:12:57;146.20;;;46.77;;
11835;SDS011;5977;51.972;7.640;2023-04-24T10:15:26;146.27;;;46.87;;
11835;SDS011;5977;51.972;7.640;2023-04-24T10:17:54;146.87;;;47.00;;
11835;SDS011;5977;51.972;7.640;2023-04-24T10:20:27;146.53;;;46.97;;
11835;SDS011;5977;51.972;7.640;2023-04-24T10:22:57;146.47;;;46.83;;
11835;SDS011;5977;51.972;7.640;2023-04-24T10:25:26;146.23;;;46.83;;
11835;SDS011;5977;51.972;7.640;2023-04-24T10:27:56;146.80;;;47.07;;
11835;SDS011;5977;51.972;7.640;2023-04-24T10:30:26;146.43;;;46.90;;
11835;SDS011;5977;51.972;7.640;2023-04-24T10:32:55;146.90;;;47.10;;
11835;SDS011;5977;51.972;7.640;2023-04-24T10:35:23;146.63;;;46.87;;
11835;SDS011;5977;51.972;7.640;2023-04-24T10:37:56;146.83;;;47.00;;
11835;SDS011;5977;51.972;7.640;2023-04-24T10:40:27;146.33;;;46.80;;
11835;SDS011;5977;51.972;7.640;2023-04-24T10:42:58;146.17;;;46.70;;
11835;SDS011;5977;51.972;7.640;2023-04-24T10:45:26;146.10;;;46.70;;
11835;SDS011;5977;51.972;7.640;2023-04-24T10:47:57;146.70;;;47.03;;
11835;SDS011;5977;51.972;7.640;2023-04-24T10:50:41;147.27;;;47.40;;
11835;SDS011;5977;51.972;7.640;2023-04-24T10:53:15;147.73;;;47.40;;
11835;SDS011;5977;51.972;7.640;2023-04-24T10:55:46;147.27;;;47.40;;
11835;SDS011;5977;51.972;7.640;2023-04-24T10:58:14;147.57;;;47.57;;
11835;SDS011;5977;51.972;7.640;2023-04-24T11:00:43;147.57;;;47.43;;
11835;SDS011;5977;51.972;7.640;2023-04-24T11:03:23;147.67;;;47.60;;
11835;SDS011;5977;51.972;7.640;2023-04-24T11:05:55;147.60;;;47.33;;
11835;SDS011;5977;51.972;7.640;2023-04-24T11:08:26;147.60;;;47.43;;
11835;SDS011;5977;51.972;7.640;2023-04-24T11:11:00;147.47;;;47.43;;
11835;SDS011;5977;51.972;7.640;2023-04-24T11:16:30;146.53;;;47.03;;
11835;SDS011;5977;51.972;7.640;2023-04-24T11:19:01;147.13;;;47.13;;
11835;SDS011;5977;51.972;7.640;2023-04-24T11:21:39;146.93;;;47.17;;
11835;SDS011;5977;51.972;7.640;2023-04-24T11:24:25;146.47;;;46.97;;
11835;SDS011;5977;51.972;7.640;2023-04-24T11:26:55;146.80;;;47.10;;
11835;SDS011;5977;51.972;7.640;2023-04-24T11:29:38;146.20;;;46.83;;
11835;SDS011;5977;51.972;7.640;2023-04-24T11:32:23;146.30;;;46.93;;
11835;SDS011;5977;51.972;7.640;2023-04-24T11:34:53;146.53;;;46.90;;
11835;SDS011;5977;51.972;7.640;2023-04-24T11:37:22;146.83;;;47.13;;
11835;SDS011;5977;51.972;7.640;2023-04-24T11:39:56;146.97;;;47.17;;
11835;SDS011;5977;51.972;7.640;2023-04-24T11:42:25;146.53;;;47.17;;
11835;SDS011;5977;51.972;7.640;2023-04-24T11:44:54;147.10;;;47.20;;
11835;SDS011;5977;51.972;7.640;2023-04-24T11:47:27;147.03;;;47.17;;
11835;SDS011;5977;51.972;7.640;2023-04-24T11:49:56;147.17;;;47.27;;
11835;SDS011;5977;51.972;7.640;2023-04-24T11:52:26;146.37;;;46.90;;
11835;SDS011;5977;51.972;7.640;2023-04-24T11:54:56;146.23;;;46.97;;
11835;SDS011;5977;51.972;7.640;2023-04-24T11:57:25;146.87;;;47.20;;
11835;SDS011;5977;51.972;7.640;2023-04-24T11:59:55;147.20;;;47.30;;
11835;SDS011;5977;51.972;7.640;2023-04-24T12:02:23;147.20;;;47.27;;
11835;SDS011;5977;51.972;7.640;2023-04-24T12:04:52;147.20;;;47.27;;
11835;SDS011;5977;51.972;7.640;2023-04-24T12:07:22;147.20;;;47.30;;
11835;SDS011;5977;51.972;7.640;2023-04-24T12:09:56;147.27;;;47.40;;
11835;SDS011;5977;51.972;7.640;2023-04-24T12:12:26;147.63;;;47.57;;
11835;SDS011;5977;51.972;7.640;2023-04-24T12:14:55;147.30;;;47.43;;
11835;SDS011;5977;51.972;7.640;2023-04-24T12:17:25;147.33;;;47.47;;
11835;SDS011;5977;51.972;7.640;2023-04-24T12:19:58;146.67;;;47.10;;
11835;SDS011;5977;51.972;7.640;2023-04-24T12:22:27;147.07;;;47.20;;
11835;SDS011;5977;51.972;7.640;2023-04-24T12:24:57;146.63;;;47.20;;
11835;SDS011;5977;51.972;7.640;2023-04-24T12:27:28;146.47;;;47.00;;
11835;SDS011;5977;51.972;7.640;2023-04-24T12:29:57;147.03;;;47.10;;
11835;SDS011;5977;51.972;7.640;2023-04-24T12:32:26;146.57;;;47.00;;
11835;SDS011;5977;51.972;7.640;2023-04-24T12:34:55;146.57;;;47.20;;
11835;SDS011;5977;51.972;7.640;2023-04-24T12:37:23;146.70;;;47.17;;
11835;SDS011;5977;51.972;7.640;2023-04-24T12:40:00;146.10;;;47.10;;
11835;SDS011;5977;51.972;7.640;2023-04-24T12:42:29;146.90;;;47.30;;
11835;SDS011;5977;51.972;7.640;2023-04-24T12:44:58;146.83;;;47.20;;
11835;SDS011;5977;51.972;7.640;2023-04-24T12:47:27;147.03;;;47.40;;
11835;SDS011;5977;51.972;7.640;2023-04-24T12:49:55;147.07;;;47.27;;
11835;SDS011;5977;51.972;7.640;2023-04-24T12:52:23;146.80;;;47.20;;
11835;SDS011;5977;51.972;7.640;2023-04-24T12:54:52;147.10;;;47.40;;
11835;SDS011;5977;51.972;7.640;2023-04-24T12:57:23;146.33;;;46.93;;
11835;SDS011;5977;51.972;7.640;2023-04-24T12:59:53;146.80;;;47.17;;
11835;SDS011;5977;51.972;7.640;2023-04-24T13:02:21;146.37;;;47.00;;
11835;SDS011;5977;51.972;7.640;2023-04-24T13:04:49;146.07;;;46.87;;
11835;SDS011;5977;51.972;7.640;2023-04-24T13:07:18;146.23;;;47.03;;
11835;SDS011;5977;51.972;7.640;2023-04-24T13:09:47;146.10;;;46.90;;
11835;SDS011;5977;51.972;7.640;2023-04-24T13:12:15;146.67;;;47.20;;
11835;SDS011;5977;51.972;7.640;2023-04-24T13:14:45;146.03;;;46.73;;
11835;SDS011;5977;51.972;7.640;2023-04-24T13:17:14;146.63;;;47.17;;
11835;SDS011;5977;51.972;7.640;2023-04-24T13:19:43;146.27;;;47.03;;
11835;SDS011;5977;51.972;7.640;2023-04-24T13:22:11;146.27;;;47.03;;
11835;SDS011;5977;51.972;7.640;2023-04-24T13:24:39;146.90;;;47.40;;
11835;SDS011;5977;51.972;7.640;2023-04-24T13:27:08;146.77;;;47.20;;
11835;SDS011;5977;51.972;7.640;2023-04-24T13:29:36;147.07;;;47.33;;
11835;SDS011;5977;51.972;7.640;2023-04-24T13:32:05;146.43;;;47.00;;
11835;SDS011;5977;51.972;7.640;2023-04-24T13:34:34;146.40;;;47.07;;
11835;SDS011;5977;51.972;7.640;2023-04-24T13:37:03;146.93;;;47.30;;
11835;SDS011;5977;51.972;7.640;2023-04-24T13:39:31;146.53;;;47.13;;
11835;SDS011;5977;51.972;7.640;2023-04-24T13:41:59;147.10;;;47.30;;
11835;SDS011;5977;51.972;7.640;2023-04-24T13:44:30;146.80;;;47.20;;
11835;SDS011;5977;51.972;7.640;2023-04-24T13:46:58;146.73;;;47.17;;
11835;SDS011;5977;51.972;7.640;2023-04-24T13:49:27;146.87;;;47.23;;
11835;SDS011;5977;51.972;7.640;2023-04-24T13:51:55;146.33;;;47.00;;
11835;SDS011;5977;51.972;7.640;2023-04-24T13:54:23;146.63;;;47.20;;
11835;SDS011;5977;51.972;7.640;2023-04-24T13:56:52;146.77;;;47.20;;
11835;SDS011;5977;51.972;7.640;2023-04-24T13:59:20;146.90;;;47.27;;
11835;SDS011;5977;51.972;7.640;2023-04-24T14:01:48;146.60;;;47.03;;
11835;SDS011;5977;51.972;7.640;2023-04-24T14:04:16;146.43;;;47.07;;
11835;SDS011;5977;51.972;7.640;2023-04-24T14:06:46;146.37;;;47.10;;
11835;SDS011;5977;51.972;7.640;2023-04-24T14:09:13;146.83;;;47.20;;
11835;SDS011;5977;51.972;7.640;2023-04-24T14:11:41;146.40;;;47.03;;
11835;SDS011;5977;51.972;7.640;2023-04-24T14:14:10;146.00;;;46.90;;
11835;SDS011;5977;51.972;7.640;2023-04-24T14:16:38;146.13;;;46.97;;
11835;SDS011;5977;51.972;7.640;2023-04-24T14:19:06;146.20;;;46.93;;
11835;SDS011;5977;51.972;7.640;2023-04-24T14:21:33;146.17;;;46.90;;
11835;SDS011;5977;51.972;7.640;2023-04-24T14:24:03;146.40;;;47.13;;
11835;SDS011;5977;51.972;7.640;2023-04-24T14:26:31;146.17;;;47.10;;
11835;SDS011;5977;51.972;7.640;2023-04-24T14:28:59;146.43;;;47.17;;
11835;SDS011;5977;51.972;7.640;2023-04-24T14:31:29;147.17;;;47.37;;
11835;SDS011;5977;51.972;7.640;2023-04-24T14:33:57;146.77;;;47.27;;
11835;SDS011;5977;51.972;7.640;2023-04-24T14:36:25;146.20;;;47.03;;
11835;SDS011;5977;51.972;7.640;2023-04-24T14:38:53;146.80;;;47.23;;